sensor_id;sensor_type;location;lat;lon;timestamp;P1;durP1;ratioP1;P2;durP2;ratioP2
20034;SDS011;10178;48.034;9.800;2023-06-10T00:00:22;5.30;;;4.80;;
20034;SDS011;10178;48.034;9.800;2023-06-10T00:02:47;5.25;;;4.70;;
20034;SDS011;10178;48.034;9.800;2023-06-10T00:05:13;5.38;;;4.75;;
20034;SDS011;10178;48.034;9.800;2023-06-10T00:07:41;5.20;;;4.70;;
20034;SDS011;10178;48.034;9.800;2023-06-10T00:10:07;5.28;;;4.78;;
20034;SDS011;10178;48.034;9.800;2023-06-10T00:12:33;5.38;;;4.93;;
20034;SDS011;10178;48.034;9.800;2023-06-10T00:15:06;6.32;;;5.65;;
20034;SDS011;10178;48.034;9.800;2023-06-10T00:17:32;5.10;;;4.43;;
20034;SDS011;10178;48.034;9.800;2023-06-10T00:19:58;11.70;;;6.50;;
20034;SDS011;10178;48.034;9.800;2023-06-10T00:22:24;5.82;;;5.25;;
20034;SDS011;10178;48.034;9.800;2023-06-10T00:24:54;5.40;;;4.90;;
20034;SDS011;10178;48.034;9.800;2023-06-10T00:27:21;6.68;;;5.93;;
20034;SDS011;10178;48.034;9.800;2023-06-10T00:29:47;5.75;;;5.00;;
20034;SDS011;10178;48.034;9.800;2023-06-10T00:32:12;6.63;;;4.85;;
20034;SDS011;10178;48.034;9.800;2023-06-10T00:34:38;5.50;;;4.90;;
20034;SDS011;10178;48.034;9.800;2023-06-10T00:37:04;5.22;;;4.82;;
20034;SDS011;10178;48.034;9.800;2023-06-10T00:39:29;5.70;;;5.15;;
20034;SDS011;10178;48.034;9.800;2023-06-10T00:41:55;5.38;;;4.88;;
20034;SDS011;10178;48.034;9.800;2023-06-10T00:44:21;5.40;;;4.90;;
20034;SDS011;10178;48.034;9.800;2023-06-10T00:46:46;5.32;;;4.88;;
20034;SDS011;10178;48.034;9.800;2023-06-10T00:49:13;5.72;;;5.22;;
20034;SDS011;10178;48.034;9.800;2023-06-10T00:51:39;5.32;;;4.82;;
20034;SDS011;10178;48.034;9.800;2023-06-10T00:54:04;8.55;;;5.55;;
20034;SDS011;10178;48.034;9.800;2023-06-10T00:56:31;5.75;;;5.15;;
20034;SDS011;10178;48.034;9.800;2023-06-10T00:59:00;6.05;;;5.50;;
20034;SDS011;10178;48.034;9.800;2023-06-10T01:01:25;6.38;;;4.97;;
20034;SDS011;10178;48.034;9.800;2023-06-10T01:03:51;5.50;;;5.00;;
20034;SDS011;10178;48.034;9.800;2023-06-10T01:08:55;5.75;;;5.18;;
20034;SDS011;10178;48.034;9.800;2023-06-10T01:11:34;6.40;;;5.30;;
20034;SDS011;10178;48.034;9.800;2023-06-10T01:14:05;6.15;;;4.88;;
20034;SDS011;10178;48.034;9.800;2023-06-10T01:16:33;5.28;;;4.88;;
20034;SDS011;10178;48.034;9.800;2023-06-10T01:19:02;5.55;;;5.05;;
20034;SDS011;10178;48.034;9.800;2023-06-10T01:21:28;5.82;;;5.13;;
20034;SDS011;10178;48.034;9.800;2023-06-10T01:23:54;5.32;;;4.82;;
20034;SDS011;10178;48.034;9.800;2023-06-10T01:26:22;5.70;;;5.20;;
20034;SDS011;10178;48.034;9.800;2023-06-10T01:29:33;6.28;;;5.68;;
20034;SDS011;10178;48.034;9.800;2023-06-10T01:31:43;7.72;;;5.13;;
20034;SDS011;10178;48.034;9.800;2023-06-10T01:34:30;6.78;;;6.13;;
20034;SDS011;10178;48.034;9.800;2023-06-10T01:36:57;6.25;;;5.68;;
20034;SDS011;10178;48.034;9.800;2023-06-10T01:39:23;6.10;;;5.50;;
20034;SDS011;10178;48.034;9.800;2023-06-10T01:41:51;11.27;;;7.15;;
20034;SDS011;10178;48.034;9.800;2023-06-10T01:44:21;7.38;;;5.60;;
20034;SDS011;10178;48.034;9.800;2023-06-10T01:46:47;6.07;;;5.50;;
20034;SDS011;10178;48.034;9.800;2023-06-10T01:49:13;6.03;;;5.53;;
20034;SDS011;10178;48.034;9.800;2023-06-10T01:51:39;5.82;;;5.22;;
20034;SDS011;10178;48.034;9.800;2023-06-10T01:54:04;7.78;;;6.97;;
20034;SDS011;10178;48.034;9.800;2023-06-10T01:56:31;6.60;;;5.25;;
20034;SDS011;10178;48.034;9.800;2023-06-10T01:58:56;5.82;;;4.82;;
20034;SDS011;10178;48.034;9.800;2023-06-10T02:01:24;5.60;;;5.10;;
20034;SDS011;10178;48.034;9.800;2023-06-10T02:03:50;8.93;;;6.85;;
20034;SDS011;10178;48.034;9.800;2023-06-10T02:06:16;6.47;;;5.88;;
20034;SDS011;10178;48.034;9.800;2023-06-10T02:08:42;8.07;;;6.03;;
20034;SDS011;10178;48.034;9.800;2023-06-10T02:11:07;9.10;;;7.55;;
20034;SDS011;10178;48.034;9.800;2023-06-10T02:13:33;6.47;;;5.88;;
20034;SDS011;10178;48.034;9.800;2023-06-10T02:15:58;6.50;;;5.70;;
20034;SDS011;10178;48.034;9.800;2023-06-10T02:18:24;6.18;;;5.57;;
20034;SDS011;10178;48.034;9.800;2023-06-10T02:20:52;7.28;;;6.68;;
20034;SDS011;10178;48.034;9.800;2023-06-10T02:23:17;8.15;;;5.40;;
20034;SDS011;10178;48.034;9.800;2023-06-10T02:25:43;5.97;;;5.47;;
20034;SDS011;10178;48.034;9.800;2023-06-10T02:28:08;5.93;;;5.38;;
20034;SDS011;10178;48.034;9.800;2023-06-10T02:30:34;6.50;;;5.90;;
20034;SDS011;10178;48.034;9.800;2023-06-10T02:33:00;6.78;;;5.47;;
20034;SDS011;10178;48.034;9.800;2023-06-10T02:35:26;8.38;;;5.32;;
20034;SDS011;10178;48.034;9.800;2023-06-10T02:37:52;7.47;;;6.68;;
20034;SDS011;10178;48.034;9.800;2023-06-10T02:40:17;6.30;;;5.65;;
20034;SDS011;10178;48.034;9.800;2023-06-10T02:42:43;5.57;;;5.07;;
20034;SDS011;10178;48.034;9.800;2023-06-10T02:45:08;7.40;;;6.03;;
20034;SDS011;10178;48.034;9.800;2023-06-10T02:47:37;6.10;;;5.50;;
20034;SDS011;10178;48.034;9.800;2023-06-10T02:50:03;6.57;;;5.97;;
20034;SDS011;10178;48.034;9.800;2023-06-10T02:52:28;5.70;;;5.00;;
20034;SDS011;10178;48.034;9.800;2023-06-10T02:54:55;6.25;;;5.65;;
20034;SDS011;10178;48.034;9.800;2023-06-10T02:57:20;8.10;;;6.72;;
20034;SDS011;10178;48.034;9.800;2023-06-10T02:59:46;5.65;;;5.05;;
20034;SDS011;10178;48.034;9.800;2023-06-10T03:02:11;6.95;;;5.65;;
20034;SDS011;10178;48.034;9.800;2023-06-10T03:04:37;8.02;;;6.97;;
20034;SDS011;10178;48.034;9.800;2023-06-10T03:07:03;5.75;;;5.25;;
20034;SDS011;10178;48.034;9.800;2023-06-10T03:09:32;6.05;;;5.45;;
20034;SDS011;10178;48.034;9.800;2023-06-10T03:11:57;6.65;;;6.07;;
20034;SDS011;10178;48.034;9.800;2023-06-10T03:14:24;6.22;;;5.63;;
20034;SDS011;10178;48.034;9.800;2023-06-10T03:16:50;6.78;;;6.07;;
20034;SDS011;10178;48.034;9.800;2023-06-10T03:19:16;5.95;;;5.43;;
20034;SDS011;10178;48.034;9.800;2023-06-10T03:21:43;6.18;;;5.57;;
20034;SDS011;10178;48.034;9.800;2023-06-10T03:24:09;6.30;;;5.70;;
20034;SDS011;10178;48.034;9.800;2023-06-10T03:26:35;6.28;;;5.68;;
20034;SDS011;10178;48.034;9.800;2023-06-10T03:29:01;6.38;;;5.60;;
20034;SDS011;10178;48.034;9.800;2023-06-10T03:31:27;6.22;;;5.63;;
20034;SDS011;10178;48.034;9.800;2023-06-10T03:33:53;6.25;;;5.72;;
20034;SDS011;10178;48.034;9.800;2023-06-10T03:36:18;5.65;;;5.15;;
20034;SDS011;10178;48.034;9.800;2023-06-10T03:38:44;5.97;;;5.43;;
20034;SDS011;10178;48.034;9.800;2023-06-10T03:41:09;6.10;;;5.57;;
20034;SDS011;10178;48.034;9.800;2023-06-10T03:43:35;9.40;;;6.88;;
20034;SDS011;10178;48.034;9.800;2023-06-10T03:46:00;5.93;;;5.43;;
20034;SDS011;10178;48.034;9.800;2023-06-10T03:48:26;6.32;;;5.72;;
20034;SDS011;10178;48.034;9.800;2023-06-10T03:50:52;6.57;;;6.00;;
20034;SDS011;10178;48.034;9.800;2023-06-10T03:53:18;6.53;;;5.93;;
20034;SDS011;10178;48.034;9.800;2023-06-10T03:55:43;5.72;;;5.22;;
20034;SDS011;10178;48.034;9.800;2023-06-10T03:58:10;6.35;;;5.75;;
20034;SDS011;10178;48.034;9.800;2023-06-10T04:00:38;6.57;;;5.88;;
20034;SDS011;10178;48.034;9.800;2023-06-10T04:03:06;6.60;;;6.00;;
20034;SDS011;10178;48.034;9.800;2023-06-10T04:05:34;6.55;;;5.57;;
20034;SDS011;10178;48.034;9.800;2023-06-10T04:08:00;6.78;;;5.90;;
20034;SDS011;10178;48.034;9.800;2023-06-10T04:10:26;6.53;;;5.75;;
20034;SDS011;10178;48.034;9.800;2023-06-10T04:12:52;7.40;;;6.10;;
20034;SDS011;10178;48.034;9.800;2023-06-10T04:15:17;8.38;;;5.88;;
20034;SDS011;10178;48.034;9.800;2023-06-10T04:17:43;5.82;;;5.32;;
20034;SDS011;10178;48.034;9.800;2023-06-10T04:20:09;7.15;;;6.47;;
20034;SDS011;10178;48.034;9.800;2023-06-10T04:22:34;6.53;;;5.93;;
20034;SDS011;10178;48.034;9.800;2023-06-10T04:25:01;6.10;;;5.57;;
20034;SDS011;10178;48.034;9.800;2023-06-10T04:27:27;6.35;;;5.75;;
20034;SDS011;10178;48.034;9.800;2023-06-10T04:29:52;6.80;;;6.20;;
20034;SDS011;10178;48.034;9.800;2023-06-10T04:32:18;7.18;;;6.53;;
20034;SDS011;10178;48.034;9.800;2023-06-10T04:34:44;8.55;;;7.75;;
20034;SDS011;10178;48.034;9.800;2023-06-10T04:37:09;6.63;;;5.75;;
20034;SDS011;10178;48.034;9.800;2023-06-10T04:39:38;6.25;;;5.47;;
20034;SDS011;10178;48.034;9.800;2023-06-10T04:42:03;6.57;;;5.97;;
20034;SDS011;10178;48.034;9.800;2023-06-10T04:44:30;6.18;;;5.68;;
20034;SDS011;10178;48.034;9.800;2023-06-10T04:46:55;6.28;;;5.68;;
20034;SDS011;10178;48.034;9.800;2023-06-10T04:49:21;6.40;;;5.80;;
20034;SDS011;10178;48.034;9.800;2023-06-10T04:51:46;6.30;;;5.80;;
20034;SDS011;10178;48.034;9.800;2023-06-10T04:54:12;6.03;;;5.50;;
20034;SDS011;10178;48.034;9.800;2023-06-10T04:56:38;6.40;;;5.80;;
20034;SDS011;10178;48.034;9.800;2023-06-10T04:59:04;6.82;;;6.13;;
20034;SDS011;10178;48.034;9.800;2023-06-10T05:01:29;6.40;;;5.80;;
20034;SDS011;10178;48.034;9.800;2023-06-10T05:03:55;7.18;;;6.47;;
20034;SDS011;10178;48.034;9.800;2023-06-10T05:06:21;6.18;;;5.57;;
20034;SDS011;10178;48.034;9.800;2023-06-10T05:08:46;6.10;;;5.60;;
20034;SDS011;10178;48.034;9.800;2023-06-10T05:11:12;6.70;;;6.10;;
20034;SDS011;10178;48.034;9.800;2023-06-10T05:13:37;8.02;;;6.35;;
20034;SDS011;10178;48.034;9.800;2023-06-10T05:16:05;7.20;;;6.07;;
20034;SDS011;10178;48.034;9.800;2023-06-10T05:18:30;6.70;;;6.10;;
20034;SDS011;10178;48.034;9.800;2023-06-10T05:20:56;7.47;;;6.78;;
20034;SDS011;10178;48.034;9.800;2023-06-10T05:23:21;6.40;;;5.75;;
20034;SDS011;10178;48.034;9.800;2023-06-10T05:25:48;6.95;;;6.25;;
20034;SDS011;10178;48.034;9.800;2023-06-10T05:28:13;7.00;;;6.32;;
20034;SDS011;10178;48.034;9.800;2023-06-10T05:30:39;6.43;;;5.88;;
20034;SDS011;10178;48.034;9.800;2023-06-10T05:33:05;6.35;;;5.82;;
20034;SDS011;10178;48.034;9.800;2023-06-10T05:35:31;9.48;;;5.93;;
20034;SDS011;10178;48.034;9.800;2023-06-10T05:37:56;6.85;;;6.05;;
20034;SDS011;10178;48.034;9.800;2023-06-10T05:40:22;6.68;;;6.07;;
20034;SDS011;10178;48.034;9.800;2023-06-10T05:42:48;8.82;;;6.55;;
20034;SDS011;10178;48.034;9.800;2023-06-10T05:45:13;6.38;;;5.82;;
20034;SDS011;10178;48.034;9.800;2023-06-10T05:47:39;7.13;;;6.43;;
20034;SDS011;10178;48.034;9.800;2023-06-10T05:50:05;6.80;;;6.20;;
20034;SDS011;10178;48.034;9.800;2023-06-10T05:52:35;12.32;;;8.45;;
20034;SDS011;10178;48.034;9.800;2023-06-10T05:55:04;9.35;;;6.25;;
20034;SDS011;10178;48.034;9.800;2023-06-10T05:57:30;7.15;;;6.15;;
20034;SDS011;10178;48.034;9.800;2023-06-10T05:59:56;6.72;;;5.85;;
20034;SDS011;10178;48.034;9.800;2023-06-10T06:02:21;6.57;;;6.00;;
20034;SDS011;10178;48.034;9.800;2023-06-10T06:04:47;6.75;;;6.05;;
20034;SDS011;10178;48.034;9.800;2023-06-10T06:07:13;7.75;;;6.40;;
20034;SDS011;10178;48.034;9.800;2023-06-10T06:09:38;6.90;;;6.22;;
20034;SDS011;10178;48.034;9.800;2023-06-10T06:12:04;6.03;;;5.43;;
20034;SDS011;10178;48.034;9.800;2023-06-10T06:14:32;6.70;;;6.10;;
20034;SDS011;10178;48.034;9.800;2023-06-10T06:17:02;6.68;;;6.07;;
20034;SDS011;10178;48.034;9.800;2023-06-10T06:19:27;6.75;;;6.07;;
20034;SDS011;10178;48.034;9.800;2023-06-10T06:21:53;6.53;;;5.93;;
20034;SDS011;10178;48.034;9.800;2023-06-10T06:24:19;7.72;;;5.97;;
20034;SDS011;10178;48.034;9.800;2023-06-10T06:26:44;6.95;;;6.35;;
20034;SDS011;10178;48.034;9.800;2023-06-10T06:29:10;7.05;;;6.10;;
20034;SDS011;10178;48.034;9.800;2023-06-10T06:31:35;8.13;;;7.32;;
20034;SDS011;10178;48.034;9.800;2023-06-10T06:34:01;9.00;;;6.55;;
20034;SDS011;10178;48.034;9.800;2023-06-10T06:36:27;6.60;;;6.00;;
20034;SDS011;10178;48.034;9.800;2023-06-10T06:38:53;6.57;;;5.97;;
20034;SDS011;10178;48.034;9.800;2023-06-10T06:41:18;7.43;;;6.70;;
20034;SDS011;10178;48.034;9.800;2023-06-10T06:43:44;8.73;;;6.47;;
20034;SDS011;10178;48.034;9.800;2023-06-10T06:46:10;7.13;;;6.40;;
20034;SDS011;10178;48.034;9.800;2023-06-10T06:48:35;8.57;;;6.45;;
20034;SDS011;10178;48.034;9.800;2023-06-10T06:51:01;6.88;;;6.28;;
20034;SDS011;10178;48.034;9.800;2023-06-10T06:53:26;6.50;;;5.90;;
20034;SDS011;10178;48.034;9.800;2023-06-10T06:55:52;9.77;;;7.35;;
20034;SDS011;10178;48.034;9.800;2023-06-10T06:58:18;7.18;;;6.47;;
20034;SDS011;10178;48.034;9.800;2023-06-10T07:00:43;6.85;;;6.15;;
20034;SDS011;10178;48.034;9.800;2023-06-10T07:03:09;7.20;;;6.50;;
20034;SDS011;10178;48.034;9.800;2023-06-10T07:05:35;11.38;;;8.02;;
20034;SDS011;10178;48.034;9.800;2023-06-10T07:08:00;8.07;;;6.00;;
20034;SDS011;10178;48.034;9.800;2023-06-10T07:10:26;6.38;;;5.78;;
20034;SDS011;10178;48.034;9.800;2023-06-10T07:12:53;6.72;;;6.13;;
20034;SDS011;10178;48.034;9.800;2023-06-10T07:15:18;7.47;;;6.68;;
20034;SDS011;10178;48.034;9.800;2023-06-10T07:17:44;7.18;;;6.57;;
20034;SDS011;10178;48.034;9.800;2023-06-10T07:20:10;6.82;;;6.18;;
20034;SDS011;10178;48.034;9.800;2023-06-10T07:22:36;9.82;;;7.40;;
20034;SDS011;10178;48.034;9.800;2023-06-10T07:25:04;6.60;;;6.00;;
20034;SDS011;10178;48.034;9.800;2023-06-10T07:27:30;7.00;;;6.30;;
20034;SDS011;10178;48.034;9.800;2023-06-10T07:29:55;12.05;;;7.22;;
20034;SDS011;10178;48.034;9.800;2023-06-10T07:32:21;7.03;;;6.32;;
20034;SDS011;10178;48.034;9.800;2023-06-10T07:34:48;7.05;;;6.35;;
20034;SDS011;10178;48.034;9.800;2023-06-10T07:37:14;8.18;;;7.05;;
20034;SDS011;10178;48.034;9.800;2023-06-10T07:39:40;7.07;;;6.38;;
20034;SDS011;10178;48.034;9.800;2023-06-10T07:42:06;8.02;;;6.00;;
20034;SDS011;10178;48.034;9.800;2023-06-10T07:44:32;6.95;;;6.35;;
20034;SDS011;10178;48.034;9.800;2023-06-10T07:46:57;7.30;;;5.28;;
20034;SDS011;10178;48.034;9.800;2023-06-10T07:49:23;6.35;;;5.72;;
20034;SDS011;10178;48.034;9.800;2023-06-10T07:51:49;6.38;;;5.80;;
20034;SDS011;10178;48.034;9.800;2023-06-10T07:54:15;7.50;;;6.63;;
20034;SDS011;10178;48.034;9.800;2023-06-10T07:56:41;8.50;;;6.40;;
20034;SDS011;10178;48.034;9.800;2023-06-10T07:59:07;6.80;;;6.18;;
20034;SDS011;10178;48.034;9.800;2023-06-10T08:01:32;8.88;;;6.13;;
20034;SDS011;10178;48.034;9.800;2023-06-10T08:03:58;9.43;;;6.28;;
20034;SDS011;10178;48.034;9.800;2023-06-10T08:06:23;6.50;;;5.90;;
20034;SDS011;10178;48.034;9.800;2023-06-10T08:08:49;6.40;;;5.68;;
20034;SDS011;10178;48.034;9.800;2023-06-10T08:11:15;7.85;;;6.15;;
20034;SDS011;10178;48.034;9.800;2023-06-10T08:13:40;6.57;;;5.88;;
20034;SDS011;10178;48.034;9.800;2023-06-10T08:16:06;6.03;;;5.25;;
20034;SDS011;10178;48.034;9.800;2023-06-10T08:18:32;6.95;;;5.82;;
20034;SDS011;10178;48.034;9.800;2023-06-10T08:20:58;11.30;;;6.22;;
20034;SDS011;10178;48.034;9.800;2023-06-10T08:23:24;5.82;;;5.38;;
20034;SDS011;10178;48.034;9.800;2023-06-10T08:25:50;6.03;;;5.53;;
20034;SDS011;10178;48.034;9.800;2023-06-10T08:28:16;7.43;;;6.63;;
20034;SDS011;10178;48.034;9.800;2023-06-10T08:30:42;6.93;;;6.18;;
20034;SDS011;10178;48.034;9.800;2023-06-10T08:33:07;6.00;;;5.50;;
20034;SDS011;10178;48.034;9.800;2023-06-10T08:35:33;5.57;;;5.07;;
20034;SDS011;10178;48.034;9.800;2023-06-10T08:37:59;7.65;;;5.78;;
20034;SDS011;10178;48.034;9.800;2023-06-10T08:40:25;5.63;;;5.05;;
20034;SDS011;10178;48.034;9.800;2023-06-10T08:45:30;9.85;;;5.80;;
20034;SDS011;10178;48.034;9.800;2023-06-10T08:47:57;5.95;;;5.43;;
20034;SDS011;10178;48.034;9.800;2023-06-10T08:50:23;9.00;;;5.50;;
20034;SDS011;10178;48.034;9.800;2023-06-10T08:52:50;6.25;;;5.35;;
20034;SDS011;10178;48.034;9.800;2023-06-10T08:55:27;5.80;;;5.28;;
20034;SDS011;10178;48.034;9.800;2023-06-10T08:57:55;6.50;;;5.03;;
20034;SDS011;10178;48.034;9.800;2023-06-10T09:00:21;5.63;;;5.13;;
20034;SDS011;10178;48.034;9.800;2023-06-10T09:02:47;6.53;;;5.85;;
20034;SDS011;10178;48.034;9.800;2023-06-10T09:05:14;5.55;;;5.05;;
20034;SDS011;10178;48.034;9.800;2023-06-10T09:07:41;5.72;;;5.22;;
20034;SDS011;10178;48.034;9.800;2023-06-10T09:10:07;6.18;;;5.57;;
20034;SDS011;10178;48.034;9.800;2023-06-10T09:12:36;5.80;;;5.20;;
20034;SDS011;10178;48.034;9.800;2023-06-10T09:15:03;6.03;;;5.53;;
20034;SDS011;10178;48.034;9.800;2023-06-10T09:17:29;6.63;;;5.90;;
20034;SDS011;10178;48.034;9.800;2023-06-10T09:19:55;5.45;;;4.93;;
20034;SDS011;10178;48.034;9.800;2023-06-10T09:22:22;5.47;;;4.95;;
20034;SDS011;10178;48.034;9.800;2023-06-10T09:24:48;5.85;;;5.18;;
20034;SDS011;10178;48.034;9.800;2023-06-10T09:27:14;5.35;;;4.90;;
20034;SDS011;10178;48.034;9.800;2023-06-10T09:29:45;7.03;;;5.93;;
20034;SDS011;10178;48.034;9.800;2023-06-10T09:32:17;10.23;;;6.20;;
20034;SDS011;10178;48.034;9.800;2023-06-10T09:34:44;6.38;;;5.78;;
20034;SDS011;10178;48.034;9.800;2023-06-10T09:37:10;5.90;;;5.30;;
20034;SDS011;10178;48.034;9.800;2023-06-10T09:39:39;6.97;;;6.38;;
20034;SDS011;10178;48.034;9.800;2023-06-10T09:42:17;8.55;;;5.90;;
20034;SDS011;10178;48.034;9.800;2023-06-10T09:44:50;5.60;;;5.10;;
20034;SDS011;10178;48.034;9.800;2023-06-10T09:47:22;6.40;;;5.80;;
20034;SDS011;10178;48.034;9.800;2023-06-10T09:49:48;7.57;;;6.75;;
20034;SDS011;10178;48.034;9.800;2023-06-10T09:52:21;8.95;;;6.85;;
20034;SDS011;10178;48.034;9.800;2023-06-10T09:54:53;7.40;;;6.80;;
20034;SDS011;10178;48.034;9.800;2023-06-10T09:57:20;6.22;;;5.63;;
20034;SDS011;10178;48.034;9.800;2023-06-10T09:59:47;6.10;;;5.53;;
20034;SDS011;10178;48.034;9.800;2023-06-10T10:02:16;6.03;;;5.30;;
20034;SDS011;10178;48.034;9.800;2023-06-10T10:04:42;5.82;;;5.32;;
20034;SDS011;10178;48.034;9.800;2023-06-10T10:07:11;8.23;;;7.53;;
20034;SDS011;10178;48.034;9.800;2023-06-10T10:09:38;7.68;;;6.97;;
20034;SDS011;10178;48.034;9.800;2023-06-10T10:12:14;7.70;;;6.90;;
20034;SDS011;10178;48.034;9.800;2023-06-10T10:14:43;7.35;;;6.72;;
20034;SDS011;10178;48.034;9.800;2023-06-10T10:17:13;6.75;;;5.85;;
20034;SDS011;10178;48.034;9.800;2023-06-10T10:19:46;8.07;;;6.40;;
20034;SDS011;10178;48.034;9.800;2023-06-10T10:22:18;5.00;;;4.47;;
20034;SDS011;10178;48.034;9.800;2023-06-10T10:25:08;6.32;;;5.72;;
20034;SDS011;10178;48.034;9.800;2023-06-10T10:30:20;5.75;;;5.25;;
20034;SDS011;10178;48.034;9.800;2023-06-10T10:35:21;7.00;;;5.70;;
20034;SDS011;10178;48.034;9.800;2023-06-10T10:37:48;6.10;;;5.50;;
20034;SDS011;10178;48.034;9.800;2023-06-10T10:40:17;6.80;;;6.10;;
20034;SDS011;10178;48.034;9.800;2023-06-10T10:42:45;6.72;;;6.20;;
20034;SDS011;10178;48.034;9.800;2023-06-10T10:45:12;6.07;;;5.57;;
20034;SDS011;10178;48.034;9.800;2023-06-10T10:47:38;6.20;;;5.60;;
20034;SDS011;10178;48.034;9.800;2023-06-10T10:50:17;8.35;;;5.85;;
20034;SDS011;10178;48.034;9.800;2023-06-10T10:52:54;6.45;;;5.47;;
20034;SDS011;10178;48.034;9.800;2023-06-10T10:55:24;6.43;;;5.30;;
20034;SDS011;10178;48.034;9.800;2023-06-10T10:58:04;5.88;;;5.38;;
20034;SDS011;10178;48.034;9.800;2023-06-10T11:05:35;5.78;;;5.28;;
20034;SDS011;10178;48.034;9.800;2023-06-10T11:08:03;5.35;;;4.90;;
20034;SDS011;10178;48.034;9.800;2023-06-10T11:12:56;4.57;;;4.18;;
20034;SDS011;10178;48.034;9.800;2023-06-10T11:15:23;5.28;;;4.68;;
20034;SDS011;10178;48.034;9.800;2023-06-10T11:28:41;8.82;;;4.65;;
20034;SDS011;10178;48.034;9.800;2023-06-10T11:31:27;7.05;;;4.80;;
20034;SDS011;10178;48.034;9.800;2023-06-10T11:33:58;4.60;;;4.20;;
20034;SDS011;10178;48.034;9.800;2023-06-10T11:36:32;4.85;;;4.32;;
20034;SDS011;10178;48.034;9.800;2023-06-10T11:38:59;5.35;;;4.32;;
20034;SDS011;10178;48.034;9.800;2023-06-10T11:41:27;5.82;;;3.95;;
20034;SDS011;10178;48.034;9.800;2023-06-10T11:43:54;4.43;;;4.00;;
20034;SDS011;10178;48.034;9.800;2023-06-10T11:46:23;4.95;;;4.50;;
20034;SDS011;10178;48.034;9.800;2023-06-10T11:48:59;4.43;;;4.13;;
20034;SDS011;10178;48.034;9.800;2023-06-10T11:51:32;5.15;;;4.60;;
20034;SDS011;10178;48.034;9.800;2023-06-10T11:53:59;4.50;;;4.10;;
20034;SDS011;10178;48.034;9.800;2023-06-10T11:56:28;4.53;;;4.22;;
20034;SDS011;10178;48.034;9.800;2023-06-10T11:58:56;5.72;;;3.85;;
20034;SDS011;10178;48.034;9.800;2023-06-10T12:01:24;3.90;;;3.60;;
20034;SDS011;10178;48.034;9.800;2023-06-10T12:06:47;3.85;;;3.20;;
20034;SDS011;10178;48.034;9.800;2023-06-10T12:09:14;3.55;;;3.25;;
20034;SDS011;10178;48.034;9.800;2023-06-10T12:11:40;3.83;;;3.50;;
20034;SDS011;10178;48.034;9.800;2023-06-10T12:14:08;5.95;;;3.97;;
20034;SDS011;10178;48.034;9.800;2023-06-10T12:16:34;3.50;;;3.30;;
20034;SDS011;10178;48.034;9.800;2023-06-10T12:19:03;3.70;;;3.40;;
20034;SDS011;10178;48.034;9.800;2023-06-10T12:21:31;3.13;;;2.92;;
20034;SDS011;10178;48.034;9.800;2023-06-10T12:24:10;3.70;;;3.40;;
20034;SDS011;10178;48.034;9.800;2023-06-10T12:26:45;3.60;;;3.30;;
20034;SDS011;10178;48.034;9.800;2023-06-10T12:29:21;4.00;;;3.55;;
20034;SDS011;10178;48.034;9.800;2023-06-10T12:31:53;3.63;;;3.33;;
20034;SDS011;10178;48.034;9.800;2023-06-10T12:35:01;3.65;;;3.35;;
20034;SDS011;10178;48.034;9.800;2023-06-10T12:37:26;3.80;;;3.50;;
20034;SDS011;10178;48.034;9.800;2023-06-10T12:39:52;3.42;;;3.10;;
20034;SDS011;10178;48.034;9.800;2023-06-10T12:42:21;3.35;;;3.15;;
20034;SDS011;10178;48.034;9.800;2023-06-10T12:44:47;3.83;;;3.53;;
20034;SDS011;10178;48.034;9.800;2023-06-10T12:47:18;3.25;;;3.00;;
20034;SDS011;10178;48.034;9.800;2023-06-10T12:49:44;3.75;;;3.42;;
20034;SDS011;10178;48.034;9.800;2023-06-10T12:52:09;3.35;;;3.15;;
20034;SDS011;10178;48.034;9.800;2023-06-10T12:54:35;3.65;;;3.35;;
20034;SDS011;10178;48.034;9.800;2023-06-10T12:57:01;3.97;;;3.67;;
20034;SDS011;10178;48.034;9.800;2023-06-10T12:59:27;3.45;;;3.15;;
20034;SDS011;10178;48.034;9.800;2023-06-10T13:01:54;3.67;;;3.38;;
20034;SDS011;10178;48.034;9.800;2023-06-10T13:04:20;4.00;;;3.70;;
20034;SDS011;10178;48.034;9.800;2023-06-10T13:06:46;3.67;;;3.35;;
20034;SDS011;10178;48.034;9.800;2023-06-10T13:09:14;3.25;;;3.05;;
20034;SDS011;10178;48.034;9.800;2023-06-10T13:11:40;3.65;;;3.35;;
20034;SDS011;10178;48.034;9.800;2023-06-10T13:14:07;3.28;;;3.00;;
20034;SDS011;10178;48.034;9.800;2023-06-10T13:16:34;3.28;;;2.92;;
20034;SDS011;10178;48.034;9.800;2023-06-10T13:19:02;3.60;;;3.40;;
20034;SDS011;10178;48.034;9.800;2023-06-10T13:21:30;4.28;;;3.85;;
20034;SDS011;10178;48.034;9.800;2023-06-10T13:23:56;3.45;;;3.13;;
20034;SDS011;10178;48.034;9.800;2023-06-10T13:26:22;7.85;;;4.00;;
20034;SDS011;10178;48.034;9.800;2023-06-10T13:28:48;4.03;;;3.67;;
20034;SDS011;10178;48.034;9.800;2023-06-10T13:31:13;3.95;;;3.63;;
20034;SDS011;10178;48.034;9.800;2023-06-10T13:33:39;3.35;;;3.05;;
20034;SDS011;10178;48.034;9.800;2023-06-10T13:36:05;5.03;;;3.72;;
20034;SDS011;10178;48.034;9.800;2023-06-10T13:38:31;9.15;;;4.25;;
20034;SDS011;10178;48.034;9.800;2023-06-10T13:40:56;4.57;;;4.22;;
20034;SDS011;10178;48.034;9.800;2023-06-10T13:43:22;5.05;;;4.22;;
20034;SDS011;10178;48.034;9.800;2023-06-10T13:45:48;4.60;;;4.20;;
20034;SDS011;10178;48.034;9.800;2023-06-10T13:48:13;4.90;;;4.47;;
20034;SDS011;10178;48.034;9.800;2023-06-10T13:50:39;4.82;;;4.38;;
20034;SDS011;10178;48.034;9.800;2023-06-10T13:53:05;4.43;;;4.07;;
20034;SDS011;10178;48.034;9.800;2023-06-10T13:55:30;5.72;;;4.68;;
20034;SDS011;10178;48.034;9.800;2023-06-10T13:57:56;4.90;;;4.47;;
20034;SDS011;10178;48.034;9.800;2023-06-10T14:00:22;6.10;;;5.03;;
20034;SDS011;10178;48.034;9.800;2023-06-10T14:02:47;6.00;;;5.20;;
20034;SDS011;10178;48.034;9.800;2023-06-10T14:05:13;9.52;;;4.93;;
20034;SDS011;10178;48.034;9.800;2023-06-10T14:07:39;5.28;;;4.82;;
20034;SDS011;10178;48.034;9.800;2023-06-10T14:10:15;5.07;;;4.65;;
20034;SDS011;10178;48.034;9.800;2023-06-10T14:13:36;5.63;;;4.47;;
20034;SDS011;10178;48.034;9.800;2023-06-10T14:26:09;4.72;;;4.35;;
20034;SDS011;10178;48.034;9.800;2023-06-10T14:28:35;4.55;;;3.80;;
20034;SDS011;10178;48.034;9.800;2023-06-10T14:31:00;7.05;;;3.53;;
20034;SDS011;10178;48.034;9.800;2023-06-10T14:33:26;5.00;;;3.78;;
20034;SDS011;10178;48.034;9.800;2023-06-10T14:35:53;3.65;;;3.35;;
20034;SDS011;10178;48.034;9.800;2023-06-10T14:38:18;3.67;;;3.38;;
20034;SDS011;10178;48.034;9.800;2023-06-10T14:40:45;4.18;;;3.85;;
20034;SDS011;10178;48.034;9.800;2023-06-10T14:43:11;4.30;;;3.83;;
20034;SDS011;10178;48.034;9.800;2023-06-10T14:45:37;4.18;;;3.88;;
20034;SDS011;10178;48.034;9.800;2023-06-10T14:48:05;4.38;;;3.85;;
20034;SDS011;10178;48.034;9.800;2023-06-10T14:50:31;4.07;;;3.75;;
20034;SDS011;10178;48.034;9.800;2023-06-10T14:52:57;3.92;;;3.63;;
20034;SDS011;10178;48.034;9.800;2023-06-10T14:55:26;4.25;;;3.90;;
20034;SDS011;10178;48.034;9.800;2023-06-10T14:57:52;4.38;;;4.07;;
20034;SDS011;10178;48.034;9.800;2023-06-10T15:00:18;4.03;;;3.65;;
20034;SDS011;10178;48.034;9.800;2023-06-10T15:02:45;4.10;;;3.80;;
20034;SDS011;10178;48.034;9.800;2023-06-10T15:05:14;6.25;;;4.22;;
20034;SDS011;10178;48.034;9.800;2023-06-10T15:07:41;4.10;;;3.70;;
20034;SDS011;10178;48.034;9.800;2023-06-10T15:10:07;4.32;;;4.03;;
20034;SDS011;10178;48.034;9.800;2023-06-10T15:12:33;4.18;;;3.88;;
20034;SDS011;10178;48.034;9.800;2023-06-10T15:14:59;4.05;;;3.75;;
20034;SDS011;10178;48.034;9.800;2023-06-10T15:17:24;4.13;;;3.83;;
20034;SDS011;10178;48.034;9.800;2023-06-10T15:19:50;4.10;;;3.80;;
20034;SDS011;10178;48.034;9.800;2023-06-10T15:22:16;4.40;;;4.07;;
20034;SDS011;10178;48.034;9.800;2023-06-10T15:24:42;5.03;;;4.28;;
20034;SDS011;10178;48.034;9.800;2023-06-10T15:27:07;4.10;;;3.80;;
20034;SDS011;10178;48.034;9.800;2023-06-10T15:29:33;4.38;;;4.07;;